createdAt,value
2022-12-22T00:00:57.233Z,2.84
2022-12-22T00:03:59.004Z,2.51
2022-12-22T00:07:02.180Z,2.73
2022-12-22T00:10:03.611Z,2.69
2022-12-22T00:13:05.039Z,2.44
2022-12-22T00:16:09.179Z,2.53
2022-12-22T00:19:10.332Z,2.64
2022-12-22T00:22:11.471Z,2.76
2022-12-22T00:25:12.904Z,2.76
2022-12-22T00:28:14.362Z,2.83
2022-12-22T00:31:16.774Z,2.76
2022-12-22T00:34:18.217Z,2.72
2022-12-22T00:37:19.735Z,2.92
2022-12-22T00:40:21.124Z,2.94
2022-12-22T00:43:22.617Z,2.87
2022-12-22T00:46:30.583Z,2.91
2022-12-22T00:49:32.990Z,2.75
2022-12-22T00:52:35.586Z,2.41
2022-12-22T00:55:41.552Z,2.76
2022-12-22T00:58:42.894Z,2.78
2022-12-22T01:01:45.528Z,2.74
2022-12-22T01:04:47.076Z,2.59
2022-12-22T01:07:49.140Z,2.76
2022-12-22T01:10:50.555Z,2.73
2022-12-22T01:13:51.773Z,2.80
2022-12-22T01:16:54.195Z,2.77
2022-12-22T01:19:55.163Z,2.77
2022-12-22T01:22:56.476Z,2.78
2022-12-22T01:25:57.612Z,2.74
2022-12-22T01:28:58.646Z,2.82
2022-12-22T01:32:01.095Z,2.88
2022-12-22T01:35:02.021Z,2.75
2022-12-22T01:38:05.127Z,2.86
2022-12-22T01:41:07.096Z,2.84
2022-12-22T01:44:08.683Z,2.88
2022-12-22T01:47:11.010Z,2.82
2022-12-22T01:50:12.476Z,2.82
2022-12-22T01:53:19.658Z,2.56
2022-12-22T01:56:22.063Z,2.76
2022-12-22T01:59:23.369Z,2.67
2022-12-22T02:02:27.707Z,2.45
2022-12-22T02:05:33.237Z,2.41
2022-12-22T02:08:42.081Z,1.99
2022-12-22T02:11:49.567Z,2.09
2022-12-22T02:14:57.694Z,2.13
2022-12-22T02:18:07.787Z,2.26
2022-12-22T02:21:12.774Z,2.04
2022-12-22T02:24:34.137Z,2.18
2022-12-22T02:27:37.775Z,2.18
2022-12-22T02:30:39.217Z,2.14
2022-12-22T02:33:41.045Z,2.13
2022-12-22T02:36:48.037Z,1.93
2022-12-22T02:40:00.806Z,1.64
2022-12-22T02:43:15.260Z,2.08
2022-12-22T02:46:26.416Z,2.14
2022-12-22T02:49:35.125Z,2.10
2022-12-22T02:52:41.285Z,2.12
2022-12-22T02:55:44.647Z,2.14
2022-12-22T02:58:51.026Z,2.17
2022-12-22T03:01:52.562Z,2.03
2022-12-22T03:04:53.515Z,2.04
2022-12-22T03:07:54.747Z,2.30
2022-12-22T03:10:57.347Z,2.39
2022-12-22T03:13:59.699Z,2.59
2022-12-22T03:17:00.402Z,2.51
2022-12-22T03:20:01.532Z,2.57
2022-12-22T03:23:04.956Z,2.04
2022-12-22T03:25:51.958Z,2.12
2022-12-22T03:28:35.660Z,2.31
2022-12-22T03:31:20.776Z,2.31
2022-12-22T03:34:04.615Z,2.21
2022-12-22T03:36:48.273Z,2.31
2022-12-22T03:39:33.696Z,1.90
2022-12-22T03:42:35.037Z,2.17
2022-12-22T03:45:36.179Z,2.09
2022-12-22T03:48:21.296Z,2.08
2022-12-22T03:51:05.189Z,1.97
2022-12-22T03:53:48.903Z,1.97
2022-12-22T03:56:32.742Z,1.64
2022-12-22T03:59:17.763Z,1.44
2022-12-22T04:02:01.788Z,1.52
2022-12-22T04:04:46.947Z,1.51
2022-12-22T04:07:30.731Z,1.54
2022-12-22T04:10:32.273Z,1.48
2022-12-22T04:13:15.953Z,1.43
2022-12-22T04:15:59.799Z,1.27
2022-12-22T04:18:43.709Z,1.21
2022-12-22T04:21:29.204Z,1.20
2022-12-22T04:24:13.595Z,1.32
2022-12-22T04:26:57.430Z,1.28
2022-12-22T04:29:41.171Z,0.98
2022-12-22T04:32:24.934Z,1.15
2022-12-22T04:35:09.773Z,1.06
2022-12-22T04:37:54.921Z,1.18
2022-12-22T04:40:38.707Z,0.97
2022-12-22T04:43:22.510Z,0.86
2022-12-22T04:46:06.958Z,0.96
2022-12-22T04:48:54.711Z,-0.28
2022-12-22T04:51:43.268Z,0.85
2022-12-22T04:54:28.416Z,0.86
2022-12-22T04:57:12.194Z,1.03
2022-12-22T04:59:56.170Z,1.15
2022-12-22T05:02:40.106Z,0.18
2022-12-22T05:05:23.865Z,0.81
2022-12-22T05:08:07.911Z,0.80
2022-12-22T05:10:53.219Z,0.69
2022-12-22T05:13:37.100Z,0.71
2022-12-22T05:16:20.940Z,0.72
2022-12-22T05:19:04.824Z,0.90
2022-12-22T05:21:48.577Z,0.82
2022-12-22T05:24:32.302Z,0.84
2022-12-22T05:27:17.535Z,0.82
2022-12-22T05:30:01.376Z,1.04
2022-12-22T05:32:48.119Z,0.95
2022-12-22T05:35:31.846Z,1.13
2022-12-22T05:38:15.664Z,1.10
2022-12-22T05:41:03.896Z,1.20
2022-12-22T05:43:49.624Z,1.15
2022-12-22T05:46:33.315Z,1.20
2022-12-22T05:49:17.174Z,1.36
2022-12-22T05:52:01.155Z,1.24
2022-12-22T05:54:45.246Z,0.80
2022-12-22T05:57:29.337Z,1.25
2022-12-22T06:00:16.977Z,1.13
2022-12-22T06:03:01.182Z,1.37
2022-12-22T06:05:45.269Z,1.17
2022-12-22T06:08:29.211Z,1.04
2022-12-22T06:11:12.945Z,1.23
2022-12-22T06:13:56.678Z,1.43
2022-12-22T06:16:41.778Z,1.60
2022-12-22T06:19:25.603Z,1.66
2022-12-22T06:22:09.582Z,1.64
2022-12-22T06:24:53.422Z,1.62
2022-12-22T06:27:37.203Z,1.83
2022-12-22T06:30:22.560Z,1.43
2022-12-22T06:33:09.820Z,1.75
2022-12-22T06:35:58.719Z,1.98
2022-12-22T06:38:43.004Z,1.60
2022-12-22T06:41:40.524Z,2.18
2022-12-22T06:44:24.355Z,2.19
2022-12-22T06:47:08.193Z,2.35
2022-12-22T06:49:53.369Z,2.60
2022-12-22T06:52:37.167Z,2.72
2022-12-22T06:55:21.017Z,2.88
2022-12-22T06:58:05.499Z,3.05
2022-12-22T07:00:51.350Z,3.09
2022-12-22T07:03:35.254Z,3.22
2022-12-22T07:06:20.646Z,3.29
2022-12-22T07:09:04.829Z,3.60
2022-12-22T07:11:48.707Z,3.74
2022-12-22T07:14:32.482Z,3.87
2022-12-22T07:17:16.293Z,3.82
2022-12-22T07:20:00.072Z,4.09
2022-12-22T07:22:45.281Z,4.17
2022-12-22T07:25:29.089Z,4.38
2022-12-22T07:28:18.402Z,4.49
2022-12-22T07:31:04.844Z,4.61
2022-12-22T07:33:48.709Z,4.82
2022-12-22T07:36:51.088Z,4.87
2022-12-22T07:39:54.470Z,5.05
2022-12-22T07:42:47.014Z,5.03
2022-12-22T07:45:30.804Z,4.98
2022-12-22T07:48:59.077Z,4.88
2022-12-22T07:52:01.460Z,5.24
2022-12-22T07:55:05.366Z,5.24
2022-12-22T07:58:07.471Z,5.41
2022-12-22T08:01:09.739Z,5.46
2022-12-22T08:03:53.674Z,5.48
2022-12-22T08:06:37.887Z,5.59
2022-12-22T08:09:23.128Z,5.64
2022-12-22T08:12:08.748Z,5.76
2022-12-22T08:14:52.548Z,5.59
2022-12-22T08:17:36.262Z,5.65
2022-12-22T08:20:20.145Z,5.73
2022-12-22T08:23:22.314Z,5.94
2022-12-22T08:26:14.783Z,6.04
2022-12-22T08:29:05.067Z,6.15
2022-12-22T08:32:07.808Z,6.25
2022-12-22T08:34:53.308Z,6.00
2022-12-22T08:37:55.483Z,6.15
2022-12-22T08:40:39.462Z,6.36
2022-12-22T08:43:25.029Z,6.47
2022-12-22T08:46:10.182Z,6.32
2022-12-22T08:48:53.910Z,6.46
2022-12-22T08:51:37.848Z,6.54
2022-12-22T08:54:22.351Z,6.51
2022-12-22T08:57:06.217Z,6.50
2022-12-22T08:59:50.028Z,6.52
2022-12-22T09:02:35.422Z,6.54
2022-12-22T09:05:19.492Z,6.80
2022-12-22T09:08:03.285Z,6.81
2022-12-22T09:10:47.224Z,6.81
2022-12-22T09:13:31.003Z,6.91
2022-12-22T09:16:14.985Z,6.91
2022-12-22T09:19:00.840Z,6.89
2022-12-22T09:21:45.113Z,7.11
2022-12-22T09:24:30.232Z,7.14
2022-12-22T09:27:14.092Z,7.13
2022-12-22T09:29:57.758Z,7.20
2022-12-22T09:32:41.545Z,7.21
2022-12-22T09:35:26.688Z,7.25
2022-12-22T09:38:10.484Z,7.34
2022-12-22T09:40:54.309Z,7.29
2022-12-22T09:43:38.749Z,7.59
2022-12-22T09:46:25.730Z,7.56
2022-12-22T09:49:13.685Z,7.63
2022-12-22T09:52:01.409Z,7.63
2022-12-22T09:54:45.221Z,6.87
2022-12-22T09:57:32.346Z,7.69
2022-12-22T10:00:19.385Z,7.55
2022-12-22T10:03:11.034Z,7.82
2022-12-22T10:06:00.775Z,7.84
2022-12-22T10:08:45.862Z,7.97
2022-12-22T10:11:29.608Z,8.01
2022-12-22T10:14:13.394Z,8.02
2022-12-22T10:17:19.059Z,8.22
2022-12-22T10:20:21.735Z,8.25
2022-12-22T10:23:15.278Z,8.01
2022-12-22T10:29:15.602Z,8.10
2022-12-22T10:32:02.204Z,8.26
2022-12-22T10:35:01.721Z,8.50
2022-12-22T10:37:48.005Z,8.53
2022-12-22T10:40:33.589Z,8.21
2022-12-22T10:43:24.996Z,8.58
2022-12-22T10:46:08.996Z,8.49
2022-12-22T10:48:52.827Z,8.80
2022-12-22T10:51:36.651Z,8.66
2022-12-22T10:54:29.708Z,8.77
2022-12-22T10:57:29.713Z,8.45
2022-12-22T11:00:27.291Z,8.68
2022-12-22T11:03:19.138Z,8.82
2022-12-22T11:06:14.393Z,8.82
2022-12-22T11:09:23.724Z,9.00
2022-12-22T11:12:12.042Z,9.20
2022-12-22T11:15:02.250Z,9.07
2022-12-22T11:17:57.591Z,9.11
2022-12-22T11:20:52.807Z,9.06
2022-12-22T11:23:45.484Z,9.23
2022-12-22T11:26:41.219Z,9.37
2022-12-22T11:29:44.148Z,9.44
2022-12-22T11:32:46.773Z,9.26
2022-12-22T11:35:52.691Z,9.22
2022-12-22T11:38:48.499Z,9.54
2022-12-22T11:41:58.171Z,9.47
2022-12-22T11:44:48.791Z,9.72
2022-12-22T11:47:40.628Z,9.61
2022-12-22T11:51:00.346Z,9.71
2022-12-22T11:54:05.380Z,9.59
2022-12-22T11:57:02.265Z,9.65
2022-12-22T11:59:55.956Z,9.78
2022-12-22T12:03:14.375Z,10.09
2022-12-22T12:06:13.376Z,9.85
2022-12-22T12:09:16.500Z,9.92
2022-12-22T12:12:09.862Z,9.81
2022-12-22T12:15:06.935Z,10.11
2022-12-22T12:18:09.233Z,9.69
2022-12-22T12:21:04.033Z,9.82
2022-12-22T12:24:05.778Z,9.70
2022-12-22T12:27:03.689Z,9.85
2022-12-22T12:30:35.811Z,10.06
2022-12-22T12:33:09.017Z,10.12
2022-12-22T12:36:01.149Z,9.66
2022-12-22T12:39:10.348Z,9.84
2022-12-22T12:42:05.975Z,9.93
2022-12-22T12:44:52.393Z,10.15
2022-12-22T12:47:37.685Z,9.65
2022-12-22T12:50:42.648Z,9.97
2022-12-22T12:53:28.120Z,10.23
2022-12-22T12:56:12.347Z,10.07
2022-12-22T12:58:58.414Z,9.84
2022-12-22T13:02:01.470Z,10.14
2022-12-22T13:05:29.941Z,9.99
2022-12-22T13:08:22.100Z,9.85
2022-12-22T13:12:10.439Z,9.95
2022-12-22T13:15:01.410Z,9.97
2022-12-22T13:17:50.496Z,9.98
2022-12-22T13:20:36.419Z,9.84
2022-12-22T13:23:20.348Z,9.66
2022-12-22T13:26:08.139Z,9.49
2022-12-22T13:28:57.437Z,9.86
2022-12-22T13:31:45.832Z,9.69
2022-12-22T13:35:20.181Z,9.63
2022-12-22T13:37:49.488Z,9.63
2022-12-22T13:40:41.180Z,9.55
2022-12-22T13:43:27.412Z,9.55
2022-12-22T13:46:11.517Z,9.32
2022-12-22T13:49:00.558Z,9.53
2022-12-22T13:51:44.348Z,9.41
2022-12-22T13:54:31.850Z,8.75
2022-12-22T13:57:19.450Z,8.73
2022-12-22T14:00:03.518Z,9.02
2022-12-22T14:02:54.073Z,8.87
2022-12-22T14:05:39.518Z,7.91
2022-12-22T14:08:25.047Z,8.77
2022-12-22T14:11:10.523Z,8.72
2022-12-22T14:13:54.439Z,8.64
2022-12-22T14:16:44.483Z,8.48
2022-12-22T14:19:32.198Z,8.41
2022-12-22T14:22:19.929Z,8.21
2022-12-22T14:25:10.579Z,8.27
2022-12-22T14:27:56.496Z,7.93
2022-12-22T14:30:45.298Z,8.18
2022-12-22T14:33:31.468Z,8.17
2022-12-22T14:36:18.481Z,8.12
2022-12-22T14:39:10.879Z,7.88
2022-12-22T14:41:57.271Z,7.94
2022-12-22T14:44:46.115Z,7.71
2022-12-22T14:47:30.368Z,7.59
2022-12-22T14:50:19.031Z,7.40
2022-12-22T14:53:05.113Z,7.45
2022-12-22T14:55:52.860Z,7.20
2022-12-22T14:58:41.184Z,7.37
2022-12-22T15:01:28.576Z,7.18
2022-12-22T15:04:18.534Z,7.25
2022-12-22T15:07:24.104Z,7.31
2022-12-22T15:10:15.648Z,7.19
2022-12-22T15:13:06.127Z,7.01
2022-12-22T15:15:51.025Z,6.47
2022-12-22T15:18:34.851Z,6.51
2022-12-22T15:21:20.247Z,6.46
2022-12-22T15:24:05.242Z,6.37
2022-12-22T15:26:49.151Z,6.32
2022-12-22T15:29:34.405Z,6.25
2022-12-22T15:32:18.277Z,6.15
2022-12-22T15:35:03.761Z,5.88
2022-12-22T15:37:47.757Z,5.67
2022-12-22T15:40:31.646Z,5.82
2022-12-22T15:43:53.866Z,5.81
2022-12-22T15:46:22.406Z,4.84
2022-12-22T15:49:11.560Z,5.73
2022-12-22T15:51:57.624Z,5.22
2022-12-22T15:54:41.741Z,5.49
2022-12-22T15:57:25.689Z,4.61
2022-12-22T16:00:12.234Z,5.23
2022-12-22T16:02:57.545Z,5.43
2022-12-22T16:05:42.163Z,5.06
2022-12-22T16:08:30.144Z,4.74
2022-12-22T16:11:14.220Z,4.85
2022-12-22T16:13:58.033Z,5.19
2022-12-22T16:16:42.282Z,5.25
2022-12-22T16:19:27.520Z,5.08
2022-12-22T16:22:13.005Z,5.04
2022-12-22T16:24:56.929Z,4.99
2022-12-22T16:27:40.636Z,5.06
2022-12-22T16:30:26.777Z,4.82
2022-12-22T16:33:12.727Z,4.99
2022-12-22T16:35:57.885Z,4.96
2022-12-22T16:38:41.642Z,4.98
2022-12-22T16:41:26.894Z,4.86
2022-12-22T16:44:10.977Z,4.94
2022-12-22T16:46:54.949Z,4.82
2022-12-22T16:49:39.641Z,4.60
2022-12-22T16:52:29.558Z,4.63
2022-12-22T16:55:16.711Z,4.82
2022-12-22T16:58:00.590Z,4.60
2022-12-22T17:00:46.359Z,4.68
2022-12-22T17:03:31.617Z,4.70
2022-12-22T17:06:15.551Z,4.53
2022-12-22T17:09:01.188Z,4.26
2022-12-22T17:11:45.965Z,4.28
2022-12-22T17:14:34.300Z,4.56
2022-12-22T17:17:26.827Z,4.49
2022-12-22T17:20:16.016Z,4.56
2022-12-22T17:23:02.147Z,4.50
2022-12-22T17:25:47.410Z,4.45
2022-12-22T17:28:31.473Z,4.42
2022-12-22T17:31:21.163Z,4.42
2022-12-22T17:34:14.583Z,3.99
2022-12-22T17:37:00.040Z,4.18
2022-12-22T17:39:45.218Z,4.20
2022-12-22T17:42:32.751Z,3.93
2022-12-22T17:45:18.484Z,3.93
2022-12-22T17:48:02.811Z,4.09
2022-12-22T17:50:49.838Z,4.02
2022-12-22T17:53:40.618Z,4.23
2022-12-22T17:56:27.129Z,3.94
2022-12-22T17:59:14.188Z,3.81
2022-12-22T18:01:58.378Z,3.78
2022-12-22T18:04:42.455Z,3.80
2022-12-22T18:07:26.619Z,4.09
2022-12-22T18:10:26.830Z,3.69
2022-12-22T18:13:18.100Z,3.74
2022-12-22T18:16:03.803Z,3.80
2022-12-22T18:18:48.761Z,4.08
2022-12-22T18:21:33.203Z,3.63
2022-12-22T18:24:18.550Z,3.83
2022-12-22T18:27:02.534Z,3.84
2022-12-22T18:29:48.092Z,4.12
2022-12-22T18:32:33.549Z,3.52
2022-12-22T18:35:19.005Z,3.48
2022-12-22T18:38:03.607Z,3.79
2022-12-22T18:40:49.053Z,3.69
2022-12-22T18:43:33.098Z,3.56
2022-12-22T18:46:17.509Z,3.71
2022-12-22T18:49:05.779Z,3.59
2022-12-22T18:51:50.319Z,3.23
2022-12-22T18:54:37.086Z,3.28
2022-12-22T18:57:21.730Z,3.68
2022-12-22T19:00:11.572Z,3.56
2022-12-22T19:03:00.539Z,2.90
2022-12-22T19:05:47.730Z,3.10
2022-12-22T19:08:32.006Z,3.34
2022-12-22T19:11:17.675Z,2.88
2022-12-22T19:14:02.720Z,2.79
2022-12-22T19:16:47.861Z,3.16
2022-12-22T19:19:32.000Z,3.19
2022-12-22T19:22:17.996Z,3.17
2022-12-22T19:25:02.018Z,3.27
2022-12-22T19:27:49.570Z,3.09
2022-12-22T19:30:34.412Z,2.86
2022-12-22T19:33:23.953Z,3.06
2022-12-22T19:36:09.079Z,3.50
2022-12-22T19:39:02.662Z,3.44
2022-12-22T19:41:51.507Z,3.44
2022-12-22T19:44:35.742Z,2.55
2022-12-22T19:47:22.487Z,3.21
2022-12-22T19:50:14.885Z,2.92
2022-12-22T19:52:59.934Z,3.27
2022-12-22T19:55:48.508Z,3.09
2022-12-22T19:58:39.310Z,3.19
2022-12-22T20:01:23.754Z,2.67
2022-12-22T20:04:13.033Z,3.30
2022-12-22T20:06:57.089Z,3.34
2022-12-22T20:09:40.772Z,3.30
2022-12-22T20:12:30.629Z,3.22
2022-12-22T20:15:18.667Z,3.19
2022-12-22T20:18:03.267Z,3.04
2022-12-22T20:20:58.261Z,3.16
2022-12-22T20:23:43.173Z,3.19
2022-12-22T20:26:27.825Z,3.15
2022-12-22T20:29:13.396Z,2.95
2022-12-22T20:31:57.401Z,3.18
2022-12-22T20:34:41.851Z,3.19
2022-12-22T20:37:26.675Z,3.12
2022-12-22T20:40:25.029Z,2.96
2022-12-22T20:43:14.755Z,3.00
2022-12-22T20:46:05.272Z,3.04
2022-12-22T20:48:51.589Z,3.21
2022-12-22T20:51:35.760Z,3.00
2022-12-22T20:54:19.735Z,3.25
2022-12-22T20:57:04.570Z,2.98
2022-12-22T20:59:55.420Z,3.11
2022-12-22T21:02:41.685Z,3.14
2022-12-22T21:05:25.592Z,3.21
2022-12-22T21:08:20.271Z,2.86
2022-12-22T21:11:05.541Z,3.28
2022-12-22T21:13:49.960Z,3.21
2022-12-22T21:16:34.268Z,2.83
2022-12-22T21:19:20.340Z,2.86
2022-12-22T21:22:04.212Z,2.91
2022-12-22T21:24:48.098Z,3.23
2022-12-22T21:27:31.833Z,3.27
2022-12-22T21:30:18.831Z,3.17
2022-12-22T21:33:02.636Z,3.23
2022-12-22T21:35:47.983Z,2.95
2022-12-22T21:38:34.355Z,3.31
2022-12-22T21:41:18.077Z,3.32
2022-12-22T21:44:01.796Z,3.15
2022-12-22T21:46:47.846Z,3.13
2022-12-22T21:49:33.763Z,3.22
2022-12-22T21:52:19.641Z,2.92
2022-12-22T21:55:05.400Z,3.04
2022-12-22T21:57:49.839Z,2.62
2022-12-22T22:00:34.926Z,3.19
2022-12-22T22:03:19.013Z,2.99
2022-12-22T22:06:03.066Z,2.95
2022-12-22T22:08:48.572Z,3.02
2022-12-22T22:11:33.194Z,3.33
2022-12-22T22:14:17.637Z,3.34
2022-12-22T22:17:01.531Z,3.45
2022-12-22T22:19:45.332Z,3.68
2022-12-22T22:22:29.196Z,3.62
2022-12-22T22:25:15.411Z,3.76
2022-12-22T22:28:00.492Z,3.77
2022-12-22T22:30:44.485Z,3.90
2022-12-22T22:33:28.244Z,3.91
2022-12-22T22:36:12.133Z,3.84
2022-12-22T22:38:56.104Z,3.65
2022-12-22T22:41:43.539Z,3.76
2022-12-22T22:44:27.845Z,3.68
2022-12-22T22:47:11.635Z,3.28
2022-12-22T22:49:55.391Z,3.31
2022-12-22T22:52:39.172Z,3.28
2022-12-22T22:55:23.229Z,3.39
2022-12-22T22:58:08.981Z,3.08
2022-12-22T23:00:52.822Z,3.18
2022-12-22T23:03:37.796Z,3.00
2022-12-22T23:06:21.737Z,2.92
2022-12-22T23:09:05.905Z,2.84
2022-12-22T23:11:52.585Z,2.93
2022-12-22T23:14:37.752Z,2.95
2022-12-22T23:17:21.521Z,2.92
2022-12-22T23:20:06.132Z,3.02
2022-12-22T23:22:49.884Z,2.96
2022-12-22T23:25:33.980Z,3.10
2022-12-22T23:28:18.729Z,3.06
2022-12-22T23:31:03.982Z,3.10
2022-12-22T23:33:48.159Z,3.22
2022-12-22T23:36:32.509Z,3.05
2022-12-22T23:39:16.443Z,2.79
2022-12-22T23:42:02.131Z,3.10
2022-12-22T23:44:45.924Z,2.76
2022-12-22T23:47:31.112Z,3.18
2022-12-22T23:50:14.847Z,3.29
2022-12-22T23:52:58.658Z,3.21
2022-12-22T23:55:44.566Z,3.27
2022-12-22T23:58:28.473Z,3.31
